createdAt,value
2018-05-13T00:00:02.752Z,13.8
2018-05-13T00:15:03.171Z,13.8
2018-05-13T00:30:02.564Z,13.7
2018-05-13T00:45:02.768Z,13.4
2018-05-13T01:00:03.045Z,13.4
2018-05-13T01:15:02.349Z,13.2
2018-05-13T01:30:02.752Z,13.1
2018-05-13T01:45:03.040Z,12.8
2018-05-13T02:00:02.352Z,12.8
2018-05-13T02:15:02.575Z,12.8
2018-05-13T02:30:02.970Z,12.6
2018-05-13T02:45:02.416Z,12.4
2018-05-13T03:00:02.725Z,12.4
2018-05-13T03:15:02.983Z,12.2
2018-05-13T03:30:02.359Z,12.2
2018-05-13T03:45:02.676Z,12
2018-05-13T04:00:02.921Z,11.9
2018-05-13T04:15:03.143Z,11.9
2018-05-13T04:30:02.467Z,12.1
2018-05-13T04:45:02.720Z,12.5
2018-05-13T05:00:02.906Z,12.9
2018-05-13T05:15:03.253Z,13.4
2018-05-13T05:30:02.642Z,13.8
2018-05-13T05:45:02.867Z,13.9
2018-05-13T06:00:03.175Z,14.3
2018-05-13T06:15:02.503Z,14.9
2018-05-13T06:30:03.452Z,14.9
2018-05-13T06:45:02.784Z,15.2
2018-05-13T07:00:02.399Z,15.9
2018-05-13T07:15:02.757Z,16.3
2018-05-13T07:30:03.091Z,16.6
2018-05-13T07:45:02.377Z,17.1
2018-05-13T08:00:02.750Z,17.8
2018-05-13T08:15:03.025Z,19.2
2018-05-13T08:30:02.457Z,20.8
2018-05-13T08:45:02.760Z,22.1
2018-05-13T09:00:02.982Z,23.4
2018-05-13T09:15:02.330Z,23.9
2018-05-13T09:30:02.814Z,23.8
2018-05-13T09:45:03.012Z,23.9
2018-05-13T10:00:02.373Z,26.3
2018-05-13T10:15:02.693Z,25.5
2018-05-13T10:30:03.071Z,27
2018-05-13T10:45:02.420Z,27.2
2018-05-13T11:00:02.675Z,26.8
2018-05-13T11:15:02.914Z,28.1
2018-05-13T11:30:02.290Z,28.8
2018-05-13T11:45:02.580Z,27.7
2018-05-13T12:00:02.880Z,28.1
2018-05-13T12:15:03.216Z,27.2
2018-05-13T12:30:02.615Z,28.4
2018-05-13T12:45:02.864Z,29.4
2018-05-13T13:00:03.101Z,29.4
2018-05-13T13:15:02.440Z,29.4
2018-05-13T13:30:02.830Z,28.9
2018-05-13T13:45:03.073Z,29.8
2018-05-13T14:00:02.346Z,28.8
2018-05-13T14:15:02.635Z,28.5
2018-05-13T14:30:02.969Z,28.5
2018-05-13T14:45:02.282Z,27.8
2018-05-13T15:00:02.563Z,27.4
2018-05-13T15:15:02.880Z,26.7
2018-05-13T15:30:02.204Z,26.1
2018-05-13T15:45:02.537Z,26.2
2018-05-13T16:00:02.836Z,25.4
2018-05-13T16:15:03.089Z,25
2018-05-13T16:30:02.590Z,25.2
2018-05-13T16:45:02.854Z,24.9
2018-05-13T17:00:03.082Z,24
2018-05-13T17:15:02.353Z,23.6
2018-05-13T17:30:02.660Z,23.3
2018-05-13T17:45:02.911Z,22.9
2018-05-13T18:00:03.168Z,22.6
2018-05-13T18:15:02.607Z,22.6
2018-05-13T18:30:02.914Z,22.4
2018-05-13T18:45:03.226Z,22.2
2018-05-13T19:00:02.563Z,21.8
2018-05-13T19:15:02.857Z,21.5
2018-05-13T19:30:02.365Z,21.5
2018-05-13T19:45:02.643Z,21.2
2018-05-13T20:00:02.897Z,21.2
2018-05-13T20:15:03.135Z,21.1
2018-05-13T20:30:02.415Z,20.7
2018-05-13T20:45:02.686Z,20.6
2018-05-13T21:00:02.897Z,20.4
2018-05-13T21:15:03.114Z,20.2
2018-05-13T21:30:02.408Z,19.8
2018-05-13T21:45:02.673Z,19.2
2018-05-13T22:00:02.914Z,18.8
2018-05-13T22:15:03.189Z,18.3
2018-05-13T22:30:03.023Z,17.9
2018-05-13T22:45:02.364Z,17.4
2018-05-13T23:00:03.113Z,17.6
2018-05-13T23:15:02.431Z,17.4
2018-05-13T23:30:02.910Z,17.3
2018-05-13T23:45:03.144Z,17.2
